sensor_id;sensor_type;location;lat;lon;timestamp;P1;durP1;ratioP1;P2;durP2;ratioP2
63218;SDS011;49320;52.512;13.448;2023-11-22T00:00:59;5.03;;;4.53;;
63218;SDS011;49320;52.512;13.448;2023-11-22T00:03:26;6.88;;;4.85;;
63218;SDS011;49320;52.512;13.448;2023-11-22T00:05:52;6.35;;;5.35;;
63218;SDS011;49320;52.512;13.448;2023-11-22T00:08:19;6.03;;;4.90;;
63218;SDS011;49320;52.512;13.448;2023-11-22T00:10:46;5.97;;;4.97;;
63218;SDS011;49320;52.512;13.448;2023-11-22T00:13:13;6.57;;;5.22;;
63218;SDS011;49320;52.512;13.448;2023-11-22T00:15:40;5.60;;;4.75;;
63218;SDS011;49320;52.512;13.448;2023-11-22T00:18:07;5.72;;;5.13;;
63218;SDS011;49320;52.512;13.448;2023-11-22T00:20:34;5.43;;;4.30;;
63218;SDS011;49320;52.512;13.448;2023-11-22T00:23:01;7.03;;;4.90;;
63218;SDS011;49320;52.512;13.448;2023-11-22T00:25:29;6.65;;;5.15;;
63218;SDS011;49320;52.512;13.448;2023-11-22T00:27:56;6.30;;;5.03;;
63218;SDS011;49320;52.512;13.448;2023-11-22T00:30:23;5.93;;;5.30;;
63218;SDS011;49320;52.512;13.448;2023-11-22T00:32:50;6.32;;;5.35;;
63218;SDS011;49320;52.512;13.448;2023-11-22T00:35:17;6.13;;;5.47;;
63218;SDS011;49320;52.512;13.448;2023-11-22T00:37:44;8.13;;;5.65;;
63218;SDS011;49320;52.512;13.448;2023-11-22T00:40:12;6.65;;;5.10;;
63218;SDS011;49320;52.512;13.448;2023-11-22T00:42:40;7.05;;;5.18;;
63218;SDS011;49320;52.512;13.448;2023-11-22T00:45:09;6.38;;;4.93;;
63218;SDS011;49320;52.512;13.448;2023-11-22T00:47:36;6.38;;;4.93;;
63218;SDS011;49320;52.512;13.448;2023-11-22T00:50:05;5.03;;;4.47;;
63218;SDS011;49320;52.512;13.448;2023-11-22T00:52:34;6.38;;;4.68;;
63218;SDS011;49320;52.512;13.448;2023-11-22T00:55:01;6.38;;;5.10;;
63218;SDS011;49320;52.512;13.448;2023-11-22T00:57:28;6.28;;;4.65;;
63218;SDS011;49320;52.512;13.448;2023-11-22T00:59:56;6.70;;;5.22;;
63218;SDS011;49320;52.512;13.448;2023-11-22T01:02:23;5.93;;;4.65;;
63218;SDS011;49320;52.512;13.448;2023-11-22T01:04:50;6.88;;;5.20;;
63218;SDS011;49320;52.512;13.448;2023-11-22T01:07:17;6.97;;;5.30;;
63218;SDS011;49320;52.512;13.448;2023-11-22T01:09:44;5.80;;;4.88;;
63218;SDS011;49320;52.512;13.448;2023-11-22T01:12:10;6.90;;;5.03;;
63218;SDS011;49320;52.512;13.448;2023-11-22T01:14:39;6.97;;;5.22;;
63218;SDS011;49320;52.512;13.448;2023-11-22T01:17:06;5.88;;;4.70;;
63218;SDS011;49320;52.512;13.448;2023-11-22T01:19:32;7.95;;;5.50;;
63218;SDS011;49320;52.512;13.448;2023-11-22T01:21:59;6.20;;;4.68;;
63218;SDS011;49320;52.512;13.448;2023-11-22T01:24:26;6.05;;;5.25;;
63218;SDS011;49320;52.512;13.448;2023-11-22T01:26:54;6.93;;;5.15;;
63218;SDS011;49320;52.512;13.448;2023-11-22T01:29:21;6.43;;;5.57;;
63218;SDS011;49320;52.512;13.448;2023-11-22T01:31:48;6.80;;;5.18;;
63218;SDS011;49320;52.512;13.448;2023-11-22T01:34:16;5.60;;;4.85;;
63218;SDS011;49320;52.512;13.448;2023-11-22T01:36:43;7.00;;;5.47;;
63218;SDS011;49320;52.512;13.448;2023-11-22T01:39:11;6.93;;;5.80;;
63218;SDS011;49320;52.512;13.448;2023-11-22T01:41:44;7.38;;;5.70;;
63218;SDS011;49320;52.512;13.448;2023-11-22T01:44:11;6.75;;;5.20;;
63218;SDS011;49320;52.512;13.448;2023-11-22T01:46:38;7.57;;;5.38;;
63218;SDS011;49320;52.512;13.448;2023-11-22T01:49:05;5.65;;;4.82;;
63218;SDS011;49320;52.512;13.448;2023-11-22T01:51:33;6.50;;;5.28;;
63218;SDS011;49320;52.512;13.448;2023-11-22T01:54:00;7.60;;;5.60;;
63218;SDS011;49320;52.512;13.448;2023-11-22T01:56:28;5.68;;;5.07;;
63218;SDS011;49320;52.512;13.448;2023-11-22T01:58:56;6.93;;;5.22;;
63218;SDS011;49320;52.512;13.448;2023-11-22T02:01:24;6.72;;;5.25;;
63218;SDS011;49320;52.512;13.448;2023-11-22T02:03:53;5.90;;;5.10;;
63218;SDS011;49320;52.512;13.448;2023-11-22T02:06:20;6.85;;;5.28;;
63218;SDS011;49320;52.512;13.448;2023-11-22T02:08:48;5.95;;;5.20;;
63218;SDS011;49320;52.512;13.448;2023-11-22T02:11:18;7.00;;;5.15;;
63218;SDS011;49320;52.512;13.448;2023-11-22T02:13:48;6.38;;;5.32;;
63218;SDS011;49320;52.512;13.448;2023-11-22T02:16:18;5.78;;;4.90;;
63218;SDS011;49320;52.512;13.448;2023-11-22T02:18:49;6.13;;;5.20;;
63218;SDS011;49320;52.512;13.448;2023-11-22T02:21:16;7.03;;;5.22;;
63218;SDS011;49320;52.512;13.448;2023-11-22T02:23:44;5.80;;;4.78;;
63218;SDS011;49320;52.512;13.448;2023-11-22T02:26:11;5.43;;;4.63;;
63218;SDS011;49320;52.512;13.448;2023-11-22T02:28:38;6.13;;;5.18;;
63218;SDS011;49320;52.512;13.448;2023-11-22T02:31:04;5.57;;;4.68;;
63218;SDS011;49320;52.512;13.448;2023-11-22T02:33:31;5.35;;;4.38;;
63218;SDS011;49320;52.512;13.448;2023-11-22T02:35:58;5.20;;;4.55;;
63218;SDS011;49320;52.512;13.448;2023-11-22T02:38:25;5.78;;;4.90;;
63218;SDS011;49320;52.512;13.448;2023-11-22T02:40:54;6.30;;;5.03;;
63218;SDS011;49320;52.512;13.448;2023-11-22T02:43:21;5.40;;;4.90;;
63218;SDS011;49320;52.512;13.448;2023-11-22T02:45:49;5.05;;;4.55;;
63218;SDS011;49320;52.512;13.448;2023-11-22T02:48:17;5.70;;;4.70;;
63218;SDS011;49320;52.512;13.448;2023-11-22T02:50:44;4.78;;;4.30;;
63218;SDS011;49320;52.512;13.448;2023-11-22T02:53:11;5.28;;;4.78;;
63218;SDS011;49320;52.512;13.448;2023-11-22T02:55:39;6.20;;;4.57;;
63218;SDS011;49320;52.512;13.448;2023-11-22T02:58:06;5.15;;;4.20;;
63218;SDS011;49320;52.512;13.448;2023-11-22T03:00:33;5.45;;;4.38;;
63218;SDS011;49320;52.512;13.448;2023-11-22T03:03:03;5.20;;;4.45;;
63218;SDS011;49320;52.512;13.448;2023-11-22T03:05:35;5.55;;;4.15;;
63218;SDS011;49320;52.512;13.448;2023-11-22T03:08:06;4.85;;;4.30;;
63218;SDS011;49320;52.512;13.448;2023-11-22T03:10:34;4.95;;;4.30;;
63218;SDS011;49320;52.512;13.448;2023-11-22T03:13:01;4.55;;;3.92;;
63218;SDS011;49320;52.512;13.448;2023-11-22T03:15:28;5.72;;;4.60;;
63218;SDS011;49320;52.512;13.448;2023-11-22T03:17:55;5.80;;;4.45;;
63218;SDS011;49320;52.512;13.448;2023-11-22T03:20:22;5.43;;;4.65;;
63218;SDS011;49320;52.512;13.448;2023-11-22T03:22:49;5.20;;;4.70;;
63218;SDS011;49320;52.512;13.448;2023-11-22T03:25:17;5.05;;;4.47;;
63218;SDS011;49320;52.512;13.448;2023-11-22T03:27:44;6.03;;;5.10;;
63218;SDS011;49320;52.512;13.448;2023-11-22T03:30:13;5.28;;;4.70;;
63218;SDS011;49320;52.512;13.448;2023-11-22T03:32:41;5.85;;;4.60;;
63218;SDS011;49320;52.512;13.448;2023-11-22T03:35:10;6.00;;;4.75;;
63218;SDS011;49320;52.512;13.448;2023-11-22T03:37:38;6.30;;;5.28;;
63218;SDS011;49320;52.512;13.448;2023-11-22T03:40:05;6.88;;;4.95;;
63218;SDS011;49320;52.512;13.448;2023-11-22T03:42:34;5.70;;;5.10;;
63218;SDS011;49320;52.512;13.448;2023-11-22T03:45:04;6.15;;;5.10;;
63218;SDS011;49320;52.512;13.448;2023-11-22T03:47:32;6.65;;;5.30;;
63218;SDS011;49320;52.512;13.448;2023-11-22T03:49:59;6.15;;;5.22;;
63218;SDS011;49320;52.512;13.448;2023-11-22T03:52:27;5.90;;;5.05;;
63218;SDS011;49320;52.512;13.448;2023-11-22T03:54:54;7.00;;;5.53;;
63218;SDS011;49320;52.512;13.448;2023-11-22T03:57:21;6.65;;;5.47;;
63218;SDS011;49320;52.512;13.448;2023-11-22T03:59:47;6.65;;;5.15;;
63218;SDS011;49320;52.512;13.448;2023-11-22T04:02:14;6.95;;;5.50;;
63218;SDS011;49320;52.512;13.448;2023-11-22T04:04:42;7.40;;;6.07;;
63218;SDS011;49320;52.512;13.448;2023-11-22T04:07:09;7.00;;;5.63;;
63218;SDS011;49320;52.512;13.448;2023-11-22T04:09:36;9.48;;;6.30;;
63218;SDS011;49320;52.512;13.448;2023-11-22T04:12:04;7.90;;;6.03;;
63218;SDS011;49320;52.512;13.448;2023-11-22T04:14:31;9.65;;;7.05;;
63218;SDS011;49320;52.512;13.448;2023-11-22T04:16:58;9.35;;;6.88;;
63218;SDS011;49320;52.512;13.448;2023-11-22T04:19:26;8.55;;;6.75;;
63218;SDS011;49320;52.512;13.448;2023-11-22T04:21:53;9.43;;;6.70;;
63218;SDS011;49320;52.512;13.448;2023-11-22T04:24:20;7.60;;;6.05;;
63218;SDS011;49320;52.512;13.448;2023-11-22T04:26:47;6.90;;;5.85;;
63218;SDS011;49320;52.512;13.448;2023-11-22T04:29:14;7.47;;;6.15;;
63218;SDS011;49320;52.512;13.448;2023-11-22T04:31:43;7.28;;;5.88;;
63218;SDS011;49320;52.512;13.448;2023-11-22T04:34:10;6.80;;;5.88;;
63218;SDS011;49320;52.512;13.448;2023-11-22T04:36:37;6.90;;;5.90;;
63218;SDS011;49320;52.512;13.448;2023-11-22T04:39:05;6.82;;;5.55;;
63218;SDS011;49320;52.512;13.448;2023-11-22T04:41:34;7.30;;;5.78;;
63218;SDS011;49320;52.512;13.448;2023-11-22T04:44:01;7.22;;;5.72;;
63218;SDS011;49320;52.512;13.448;2023-11-22T04:46:28;6.53;;;5.63;;
63218;SDS011;49320;52.512;13.448;2023-11-22T04:48:55;6.10;;;5.35;;
63218;SDS011;49320;52.512;13.448;2023-11-22T04:51:23;5.97;;;5.18;;
63218;SDS011;49320;52.512;13.448;2023-11-22T04:53:50;6.80;;;5.88;;
63218;SDS011;49320;52.512;13.448;2023-11-22T04:56:17;7.47;;;5.72;;
63218;SDS011;49320;52.512;13.448;2023-11-22T04:58:44;7.00;;;5.70;;
63218;SDS011;49320;52.512;13.448;2023-11-22T05:01:11;7.30;;;5.38;;
63218;SDS011;49320;52.512;13.448;2023-11-22T05:03:40;6.57;;;5.72;;
63218;SDS011;49320;52.512;13.448;2023-11-22T05:06:08;6.57;;;5.32;;
63218;SDS011;49320;52.512;13.448;2023-11-22T05:08:34;7.15;;;5.72;;
63218;SDS011;49320;52.512;13.448;2023-11-22T05:11:01;6.25;;;5.65;;
63218;SDS011;49320;52.512;13.448;2023-11-22T05:13:29;7.53;;;5.60;;
63218;SDS011;49320;52.512;13.448;2023-11-22T05:15:56;6.55;;;5.68;;
63218;SDS011;49320;52.512;13.448;2023-11-22T05:18:23;6.90;;;6.00;;
63218;SDS011;49320;52.512;13.448;2023-11-22T05:20:51;6.63;;;5.70;;
63218;SDS011;49320;52.512;13.448;2023-11-22T05:23:18;5.85;;;4.97;;
63218;SDS011;49320;52.512;13.448;2023-11-22T05:25:45;6.90;;;5.93;;
63218;SDS011;49320;52.512;13.448;2023-11-22T05:28:12;6.40;;;5.32;;
63218;SDS011;49320;52.512;13.448;2023-11-22T05:30:39;7.13;;;5.75;;
63218;SDS011;49320;52.512;13.448;2023-11-22T05:33:06;5.65;;;4.95;;
63218;SDS011;49320;52.512;13.448;2023-11-22T05:35:33;6.50;;;5.70;;
63218;SDS011;49320;52.512;13.448;2023-11-22T05:38:00;6.32;;;5.30;;
63218;SDS011;49320;52.512;13.448;2023-11-22T05:40:28;7.57;;;5.28;;
63218;SDS011;49320;52.512;13.448;2023-11-22T05:42:55;7.43;;;5.63;;
63218;SDS011;49320;52.512;13.448;2023-11-22T05:45:22;5.93;;;5.03;;
63218;SDS011;49320;52.512;13.448;2023-11-22T05:47:50;8.05;;;5.22;;
63218;SDS011;49320;52.512;13.448;2023-11-22T05:50:17;6.40;;;5.38;;
63218;SDS011;49320;52.512;13.448;2023-11-22T05:52:44;6.35;;;5.60;;
63218;SDS011;49320;52.512;13.448;2023-11-22T05:55:11;6.40;;;5.53;;
63218;SDS011;49320;52.512;13.448;2023-11-22T05:57:41;5.90;;;5.05;;
63218;SDS011;49320;52.512;13.448;2023-11-22T06:00:08;6.28;;;5.32;;
63218;SDS011;49320;52.512;13.448;2023-11-22T06:02:36;8.30;;;6.35;;
63218;SDS011;49320;52.512;13.448;2023-11-22T06:05:05;6.72;;;5.50;;
63218;SDS011;49320;52.512;13.448;2023-11-22T06:07:33;7.13;;;5.45;;
63218;SDS011;49320;52.512;13.448;2023-11-22T06:10:00;5.72;;;4.82;;
63218;SDS011;49320;52.512;13.448;2023-11-22T06:12:29;6.78;;;5.47;;
63218;SDS011;49320;52.512;13.448;2023-11-22T06:14:55;6.28;;;5.55;;
63218;SDS011;49320;52.512;13.448;2023-11-22T06:17:23;7.00;;;5.57;;
63218;SDS011;49320;52.512;13.448;2023-11-22T06:19:50;7.35;;;5.97;;
63218;SDS011;49320;52.512;13.448;2023-11-22T06:22:17;6.78;;;5.78;;
63218;SDS011;49320;52.512;13.448;2023-11-22T06:24:45;7.13;;;5.40;;
63218;SDS011;49320;52.512;13.448;2023-11-22T06:27:14;6.93;;;6.00;;
63218;SDS011;49320;52.512;13.448;2023-11-22T06:29:43;6.03;;;5.35;;
63218;SDS011;49320;52.512;13.448;2023-11-22T06:32:11;6.20;;;5.53;;
63218;SDS011;49320;52.512;13.448;2023-11-22T06:34:38;7.75;;;5.85;;
63218;SDS011;49320;52.512;13.448;2023-11-22T06:37:05;7.30;;;5.88;;
63218;SDS011;49320;52.512;13.448;2023-11-22T06:39:34;6.53;;;5.47;;
63218;SDS011;49320;52.512;13.448;2023-11-22T06:42:01;7.47;;;6.05;;
63218;SDS011;49320;52.512;13.448;2023-11-22T06:44:28;6.30;;;5.70;;
63218;SDS011;49320;52.512;13.448;2023-11-22T06:46:56;6.25;;;5.60;;
63218;SDS011;49320;52.512;13.448;2023-11-22T06:49:23;6.75;;;6.05;;
63218;SDS011;49320;52.512;13.448;2023-11-22T06:51:50;6.45;;;5.65;;
63218;SDS011;49320;52.512;13.448;2023-11-22T06:54:18;8.07;;;5.95;;
63218;SDS011;49320;52.512;13.448;2023-11-22T06:56:46;7.13;;;5.65;;
63218;SDS011;49320;52.512;13.448;2023-11-22T06:59:14;7.25;;;6.40;;
63218;SDS011;49320;52.512;13.448;2023-11-22T07:01:41;9.27;;;6.03;;
63218;SDS011;49320;52.512;13.448;2023-11-22T07:04:08;6.47;;;5.65;;
63218;SDS011;49320;52.512;13.448;2023-11-22T07:06:35;8.65;;;6.35;;
63218;SDS011;49320;52.512;13.448;2023-11-22T07:09:04;7.68;;;6.25;;
63218;SDS011;49320;52.512;13.448;2023-11-22T07:11:32;6.72;;;5.70;;
63218;SDS011;49320;52.512;13.448;2023-11-22T07:13:58;6.57;;;5.63;;
63218;SDS011;49320;52.512;13.448;2023-11-22T07:16:25;7.55;;;6.35;;
63218;SDS011;49320;52.512;13.448;2023-11-22T07:18:52;6.85;;;5.32;;
63218;SDS011;49320;52.512;13.448;2023-11-22T07:21:19;5.88;;;5.28;;
63218;SDS011;49320;52.512;13.448;2023-11-22T07:23:47;6.28;;;5.32;;
63218;SDS011;49320;52.512;13.448;2023-11-22T07:26:17;7.55;;;6.43;;
63218;SDS011;49320;52.512;13.448;2023-11-22T07:28:46;7.22;;;6.40;;
63218;SDS011;49320;52.512;13.448;2023-11-22T07:31:13;7.68;;;6.38;;
63218;SDS011;49320;52.512;13.448;2023-11-22T07:33:40;6.25;;;5.63;;
63218;SDS011;49320;52.512;13.448;2023-11-22T07:36:08;8.18;;;6.30;;
63218;SDS011;49320;52.512;13.448;2023-11-22T07:38:35;7.95;;;6.72;;
63218;SDS011;49320;52.512;13.448;2023-11-22T07:41:04;6.70;;;6.00;;
63218;SDS011;49320;52.512;13.448;2023-11-22T07:43:33;9.77;;;6.68;;
63218;SDS011;49320;52.512;13.448;2023-11-22T07:46:08;7.38;;;6.57;;
63218;SDS011;49320;52.512;13.448;2023-11-22T07:48:40;7.50;;;6.28;;
63218;SDS011;49320;52.512;13.448;2023-11-22T07:51:08;7.60;;;6.65;;
63218;SDS011;49320;52.512;13.448;2023-11-22T07:53:35;8.27;;;6.90;;
63218;SDS011;49320;52.512;13.448;2023-11-22T07:56:02;7.95;;;6.45;;
63218;SDS011;49320;52.512;13.448;2023-11-22T07:58:32;7.85;;;6.35;;
63218;SDS011;49320;52.512;13.448;2023-11-22T08:01:00;8.07;;;6.72;;
63218;SDS011;49320;52.512;13.448;2023-11-22T08:03:31;7.97;;;6.72;;
63218;SDS011;49320;52.512;13.448;2023-11-22T08:05:58;8.68;;;7.45;;
63218;SDS011;49320;52.512;13.448;2023-11-22T08:08:26;9.10;;;7.13;;
63218;SDS011;49320;52.512;13.448;2023-11-22T08:10:52;9.27;;;6.95;;
63218;SDS011;49320;52.512;13.448;2023-11-22T08:13:20;8.00;;;7.18;;
63218;SDS011;49320;52.512;13.448;2023-11-22T08:15:49;8.52;;;7.30;;
63218;SDS011;49320;52.512;13.448;2023-11-22T08:18:16;7.68;;;6.68;;
63218;SDS011;49320;52.512;13.448;2023-11-22T08:20:43;8.52;;;7.18;;
63218;SDS011;49320;52.512;13.448;2023-11-22T08:23:10;7.85;;;7.05;;
63218;SDS011;49320;52.512;13.448;2023-11-22T08:25:39;7.57;;;6.55;;
63218;SDS011;49320;52.512;13.448;2023-11-22T08:28:09;8.75;;;6.93;;
63218;SDS011;49320;52.512;13.448;2023-11-22T08:30:36;7.72;;;6.72;;
63218;SDS011;49320;52.512;13.448;2023-11-22T08:33:03;8.70;;;7.03;;
63218;SDS011;49320;52.512;13.448;2023-11-22T08:35:30;7.53;;;6.68;;
63218;SDS011;49320;52.512;13.448;2023-11-22T08:37:57;8.20;;;6.72;;
63218;SDS011;49320;52.512;13.448;2023-11-22T08:40:24;7.45;;;6.15;;
63218;SDS011;49320;52.512;13.448;2023-11-22T08:42:52;9.07;;;7.45;;
63218;SDS011;49320;52.512;13.448;2023-11-22T08:45:19;7.97;;;6.93;;
63218;SDS011;49320;52.512;13.448;2023-11-22T08:47:46;7.53;;;6.57;;
63218;SDS011;49320;52.512;13.448;2023-11-22T08:50:14;9.32;;;7.20;;
63218;SDS011;49320;52.512;13.448;2023-11-22T08:52:42;6.80;;;6.10;;
63218;SDS011;49320;52.512;13.448;2023-11-22T08:55:11;7.97;;;6.90;;
63218;SDS011;49320;52.512;13.448;2023-11-22T08:57:41;9.85;;;6.60;;
63218;SDS011;49320;52.512;13.448;2023-11-22T09:00:08;7.32;;;6.38;;
63218;SDS011;49320;52.512;13.448;2023-11-22T09:02:36;8.15;;;6.35;;
63218;SDS011;49320;52.512;13.448;2023-11-22T09:05:04;8.55;;;6.90;;
63218;SDS011;49320;52.512;13.448;2023-11-22T09:07:34;8.93;;;7.25;;
63218;SDS011;49320;52.512;13.448;2023-11-22T09:10:02;8.38;;;6.78;;
63218;SDS011;49320;52.512;13.448;2023-11-22T09:12:36;7.43;;;6.32;;
63218;SDS011;49320;52.512;13.448;2023-11-22T09:15:10;7.72;;;6.72;;
63218;SDS011;49320;52.512;13.448;2023-11-22T09:17:41;7.72;;;6.15;;
63218;SDS011;49320;52.512;13.448;2023-11-22T09:20:10;8.30;;;6.35;;
63218;SDS011;49320;52.512;13.448;2023-11-22T09:22:44;8.07;;;6.05;;
63218;SDS011;49320;52.512;13.448;2023-11-22T09:25:19;7.85;;;6.28;;
63218;SDS011;49320;52.512;13.448;2023-11-22T09:27:46;8.82;;;6.68;;
63218;SDS011;49320;52.512;13.448;2023-11-22T09:30:19;6.88;;;6.00;;
63218;SDS011;49320;52.512;13.448;2023-11-22T09:33:06;7.47;;;6.03;;
63218;SDS011;49320;52.512;13.448;2023-11-22T09:35:40;7.13;;;6.10;;
63218;SDS011;49320;52.512;13.448;2023-11-22T09:38:13;8.50;;;6.78;;
63218;SDS011;49320;52.512;13.448;2023-11-22T09:40:43;7.38;;;6.55;;
63218;SDS011;49320;52.512;13.448;2023-11-22T09:43:12;9.43;;;7.30;;
63218;SDS011;49320;52.512;13.448;2023-11-22T09:45:45;8.07;;;6.57;;
63218;SDS011;49320;52.512;13.448;2023-11-22T09:48:22;8.15;;;6.80;;
63218;SDS011;49320;52.512;13.448;2023-11-22T09:53:33;8.02;;;6.57;;
63218;SDS011;49320;52.512;13.448;2023-11-22T09:56:05;6.70;;;5.93;;
63218;SDS011;49320;52.512;13.448;2023-11-22T09:58:34;10.23;;;6.95;;
63218;SDS011;49320;52.512;13.448;2023-11-22T10:01:05;7.63;;;6.20;;
63218;SDS011;49320;52.512;13.448;2023-11-22T10:03:34;8.18;;;6.50;;
63218;SDS011;49320;52.512;13.448;2023-11-22T10:06:02;8.05;;;6.72;;
63218;SDS011;49320;52.512;13.448;2023-11-22T10:08:31;9.73;;;7.53;;
63218;SDS011;49320;52.512;13.448;2023-11-22T10:10:59;9.40;;;7.20;;
63218;SDS011;49320;52.512;13.448;2023-11-22T10:13:26;7.63;;;6.40;;
63218;SDS011;49320;52.512;13.448;2023-11-22T10:15:54;8.75;;;6.95;;
63218;SDS011;49320;52.512;13.448;2023-11-22T10:18:20;8.55;;;6.82;;
63218;SDS011;49320;52.512;13.448;2023-11-22T10:20:48;7.72;;;6.05;;
63218;SDS011;49320;52.512;13.448;2023-11-22T10:23:17;6.75;;;6.05;;
63218;SDS011;49320;52.512;13.448;2023-11-22T10:25:54;7.20;;;5.65;;
63218;SDS011;49320;52.512;13.448;2023-11-22T10:28:22;8.13;;;6.80;;
63218;SDS011;49320;52.512;13.448;2023-11-22T10:30:52;11.57;;;9.40;;
63218;SDS011;49320;52.512;13.448;2023-11-22T10:33:19;8.88;;;7.78;;
63218;SDS011;49320;52.512;13.448;2023-11-22T10:35:50;7.97;;;6.47;;
63218;SDS011;49320;52.512;13.448;2023-11-22T10:38:19;7.05;;;5.88;;
63218;SDS011;49320;52.512;13.448;2023-11-22T10:40:47;7.38;;;5.72;;
63218;SDS011;49320;52.512;13.448;2023-11-22T10:43:15;6.68;;;5.68;;
63218;SDS011;49320;52.512;13.448;2023-11-22T10:45:43;7.38;;;6.10;;
63218;SDS011;49320;52.512;13.448;2023-11-22T10:48:15;8.23;;;5.93;;
63218;SDS011;49320;52.512;13.448;2023-11-22T10:50:43;8.52;;;6.95;;
63218;SDS011;49320;52.512;13.448;2023-11-22T10:53:11;8.73;;;6.88;;
63218;SDS011;49320;52.512;13.448;2023-11-22T10:55:45;7.28;;;6.05;;
63218;SDS011;49320;52.512;13.448;2023-11-22T10:58:14;6.78;;;5.32;;
63218;SDS011;49320;52.512;13.448;2023-11-22T11:00:43;7.13;;;5.78;;
63218;SDS011;49320;52.512;13.448;2023-11-22T11:03:20;6.88;;;5.82;;
63218;SDS011;49320;52.512;13.448;2023-11-22T11:05:50;6.38;;;5.65;;
63218;SDS011;49320;52.512;13.448;2023-11-22T11:08:28;7.20;;;6.07;;
63218;SDS011;49320;52.512;13.448;2023-11-22T11:10:55;9.00;;;6.80;;
63218;SDS011;49320;52.512;13.448;2023-11-22T11:13:25;6.80;;;5.95;;
63218;SDS011;49320;52.512;13.448;2023-11-22T11:15:53;6.63;;;5.30;;
63218;SDS011;49320;52.512;13.448;2023-11-22T11:18:20;7.80;;;5.85;;
63218;SDS011;49320;52.512;13.448;2023-11-22T11:20:52;7.85;;;5.85;;
63218;SDS011;49320;52.512;13.448;2023-11-22T11:23:22;8.40;;;6.70;;
63218;SDS011;49320;52.512;13.448;2023-11-22T11:25:55;8.80;;;6.22;;
63218;SDS011;49320;52.512;13.448;2023-11-22T11:28:25;9.05;;;6.38;;
63218;SDS011;49320;52.512;13.448;2023-11-22T11:30:54;7.68;;;5.90;;
63218;SDS011;49320;52.512;13.448;2023-11-22T11:33:27;7.70;;;6.60;;
63218;SDS011;49320;52.512;13.448;2023-11-22T11:36:03;7.63;;;6.07;;
63218;SDS011;49320;52.512;13.448;2023-11-22T11:38:31;6.75;;;5.80;;
63218;SDS011;49320;52.512;13.448;2023-11-22T11:41:08;7.10;;;6.10;;
63218;SDS011;49320;52.512;13.448;2023-11-22T11:43:45;11.63;;;9.15;;
63218;SDS011;49320;52.512;13.448;2023-11-22T11:46:15;7.88;;;6.72;;
63218;SDS011;49320;52.512;13.448;2023-11-22T11:48:44;7.00;;;6.30;;
63218;SDS011;49320;52.512;13.448;2023-11-22T11:51:14;10.23;;;6.55;;
63218;SDS011;49320;52.512;13.448;2023-11-22T11:53:43;13.70;;;5.57;;
63218;SDS011;49320;52.512;13.448;2023-11-22T11:56:11;7.55;;;6.30;;
63218;SDS011;49320;52.512;13.448;2023-11-22T11:58:38;7.50;;;6.35;;
63218;SDS011;49320;52.512;13.448;2023-11-22T12:01:14;6.47;;;5.47;;
63218;SDS011;49320;52.512;13.448;2023-11-22T12:03:43;7.72;;;5.78;;
63218;SDS011;49320;52.512;13.448;2023-11-22T12:06:13;7.72;;;5.20;;
63218;SDS011;49320;52.512;13.448;2023-11-22T12:08:42;6.13;;;5.28;;
63218;SDS011;49320;52.512;13.448;2023-11-22T12:11:14;6.13;;;4.85;;
63218;SDS011;49320;52.512;13.448;2023-11-22T12:13:42;6.30;;;5.05;;
63218;SDS011;49320;52.512;13.448;2023-11-22T12:16:16;6.10;;;5.03;;
63218;SDS011;49320;52.512;13.448;2023-11-22T12:18:48;5.90;;;5.25;;
63218;SDS011;49320;52.512;13.448;2023-11-22T12:21:16;8.23;;;5.93;;
63218;SDS011;49320;52.512;13.448;2023-11-22T12:23:45;8.73;;;6.43;;
63218;SDS011;49320;52.512;13.448;2023-11-22T12:26:15;9.95;;;6.68;;
63218;SDS011;49320;52.512;13.448;2023-11-22T12:28:46;9.27;;;6.20;;
63218;SDS011;49320;52.512;13.448;2023-11-22T12:31:29;11.65;;;6.32;;
63218;SDS011;49320;52.512;13.448;2023-11-22T12:34:02;8.18;;;5.57;;
63218;SDS011;49320;52.512;13.448;2023-11-22T12:36:33;6.70;;;5.30;;
63218;SDS011;49320;52.512;13.448;2023-11-22T12:39:01;6.93;;;5.47;;
63218;SDS011;49320;52.512;13.448;2023-11-22T12:41:30;6.35;;;5.22;;
63218;SDS011;49320;52.512;13.448;2023-11-22T12:44:03;6.13;;;5.53;;
63218;SDS011;49320;52.512;13.448;2023-11-22T12:46:53;7.78;;;5.60;;
63218;SDS011;49320;52.512;13.448;2023-11-22T12:49:25;7.90;;;6.00;;
63218;SDS011;49320;52.512;13.448;2023-11-22T12:51:54;7.25;;;6.05;;
63218;SDS011;49320;52.512;13.448;2023-11-22T12:54:23;6.30;;;5.20;;
63218;SDS011;49320;52.512;13.448;2023-11-22T12:56:50;6.63;;;5.00;;
63218;SDS011;49320;52.512;13.448;2023-11-22T12:59:25;6.13;;;4.97;;
63218;SDS011;49320;52.512;13.448;2023-11-22T13:01:57;6.18;;;5.43;;
63218;SDS011;49320;52.512;13.448;2023-11-22T13:04:27;9.65;;;6.80;;
63218;SDS011;49320;52.512;13.448;2023-11-22T13:06:57;7.93;;;6.32;;
63218;SDS011;49320;52.512;13.448;2023-11-22T13:09:26;8.30;;;6.07;;
63218;SDS011;49320;52.512;13.448;2023-11-22T13:11:53;8.32;;;6.63;;
63218;SDS011;49320;52.512;13.448;2023-11-22T13:14:20;9.30;;;7.15;;
63218;SDS011;49320;52.512;13.448;2023-11-22T13:16:47;8.05;;;5.97;;
63218;SDS011;49320;52.512;13.448;2023-11-22T13:19:14;7.95;;;6.00;;
63218;SDS011;49320;52.512;13.448;2023-11-22T13:21:41;9.00;;;6.55;;
63218;SDS011;49320;52.512;13.448;2023-11-22T13:24:11;7.45;;;5.82;;
63218;SDS011;49320;52.512;13.448;2023-11-22T13:26:40;8.10;;;6.30;;
63218;SDS011;49320;52.512;13.448;2023-11-22T13:29:07;6.75;;;5.43;;
63218;SDS011;49320;52.512;13.448;2023-11-22T13:31:34;8.43;;;6.80;;
63218;SDS011;49320;52.512;13.448;2023-11-22T13:34:00;8.25;;;6.13;;
63218;SDS011;49320;52.512;13.448;2023-11-22T13:36:27;6.53;;;5.53;;
63218;SDS011;49320;52.512;13.448;2023-11-22T13:38:54;7.43;;;5.60;;
63218;SDS011;49320;52.512;13.448;2023-11-22T13:41:22;6.90;;;5.43;;
63218;SDS011;49320;52.512;13.448;2023-11-22T13:43:51;7.13;;;5.30;;
63218;SDS011;49320;52.512;13.448;2023-11-22T13:46:18;6.40;;;4.75;;
63218;SDS011;49320;52.512;13.448;2023-11-22T13:48:45;7.07;;;5.20;;
63218;SDS011;49320;52.512;13.448;2023-11-22T13:51:12;7.03;;;5.13;;
63218;SDS011;49320;52.512;13.448;2023-11-22T13:53:39;6.05;;;4.90;;
63218;SDS011;49320;52.512;13.448;2023-11-22T13:56:10;5.78;;;4.70;;
63218;SDS011;49320;52.512;13.448;2023-11-22T13:58:38;5.97;;;4.80;;
63218;SDS011;49320;52.512;13.448;2023-11-22T14:01:06;6.35;;;4.90;;
63218;SDS011;49320;52.512;13.448;2023-11-22T14:03:36;6.55;;;5.05;;
63218;SDS011;49320;52.512;13.448;2023-11-22T14:06:03;5.68;;;4.57;;
63218;SDS011;49320;52.512;13.448;2023-11-22T14:08:31;5.30;;;3.97;;
63218;SDS011;49320;52.512;13.448;2023-11-22T14:10:58;6.15;;;4.57;;
63218;SDS011;49320;52.512;13.448;2023-11-22T14:13:25;4.82;;;4.10;;
63218;SDS011;49320;52.512;13.448;2023-11-22T14:15:52;7.10;;;4.15;;
63218;SDS011;49320;52.512;13.448;2023-11-22T14:18:19;5.40;;;4.28;;
63218;SDS011;49320;52.512;13.448;2023-11-22T14:20:47;6.32;;;4.15;;
63218;SDS011;49320;52.512;13.448;2023-11-22T14:23:14;7.43;;;4.53;;
63218;SDS011;49320;52.512;13.448;2023-11-22T14:25:41;4.82;;;4.00;;
63218;SDS011;49320;52.512;13.448;2023-11-22T14:28:08;5.53;;;4.88;;
63218;SDS011;49320;52.512;13.448;2023-11-22T14:30:35;4.38;;;3.92;;
63218;SDS011;49320;52.512;13.448;2023-11-22T14:33:03;5.40;;;4.45;;
63218;SDS011;49320;52.512;13.448;2023-11-22T14:35:34;5.30;;;4.25;;
63218;SDS011;49320;52.512;13.448;2023-11-22T14:38:02;6.50;;;4.63;;
63218;SDS011;49320;52.512;13.448;2023-11-22T14:40:32;5.32;;;4.57;;
63218;SDS011;49320;52.512;13.448;2023-11-22T14:42:59;6.13;;;4.90;;